sensor_id;sensor_type;location;lat;lon;timestamp;temperature;humidity
7117;DHT22;3600;48.568;7.870;2022-07-23T00:00:14;24.10;99.90
7117;DHT22;3600;48.568;7.870;2022-07-23T00:02:41;24.00;99.90
7117;DHT22;3600;48.568;7.870;2022-07-23T00:05:09;23.80;99.90
7117;DHT22;3600;48.568;7.870;2022-07-23T00:07:36;23.70;99.90
7117;DHT22;3600;48.568;7.870;2022-07-23T00:10:04;23.60;99.90
7117;DHT22;3600;48.568;7.870;2022-07-23T00:12:31;23.70;99.90
7117;DHT22;3600;48.568;7.870;2022-07-23T00:14:58;23.80;99.90
7117;DHT22;3600;48.568;7.870;2022-07-23T00:17:24;23.60;99.90
7117;DHT22;3600;48.568;7.870;2022-07-23T00:19:51;23.70;99.90
7117;DHT22;3600;48.568;7.870;2022-07-23T00:22:19;23.70;99.90
7117;DHT22;3600;48.568;7.870;2022-07-23T00:24:46;23.50;99.90
7117;DHT22;3600;48.568;7.870;2022-07-23T00:27:33;23.40;99.90
7117;DHT22;3600;48.568;7.870;2022-07-23T00:29:59;23.80;99.90
7117;DHT22;3600;48.568;7.870;2022-07-23T00:32:26;23.90;99.90
7117;DHT22;3600;48.568;7.870;2022-07-23T00:35:13;24.00;99.90
7117;DHT22;3600;48.568;7.870;2022-07-23T00:37:40;24.10;99.90
7117;DHT22;3600;48.568;7.870;2022-07-23T00:40:08;24.20;99.90
7117;DHT22;3600;48.568;7.870;2022-07-23T00:42:35;24.00;99.90
7117;DHT22;3600;48.568;7.870;2022-07-23T00:45:01;23.70;99.90
7117;DHT22;3600;48.568;7.870;2022-07-23T00:47:28;23.10;99.90
7117;DHT22;3600;48.568;7.870;2022-07-23T00:49:55;22.70;99.90
7117;DHT22;3600;48.568;7.870;2022-07-23T00:52:22;22.70;99.90
7117;DHT22;3600;48.568;7.870;2022-07-23T00:54:49;22.70;99.90
7117;DHT22;3600;48.568;7.870;2022-07-23T00:57:16;22.30;99.90
7117;DHT22;3600;48.568;7.870;2022-07-23T00:59:43;22.40;99.90
7117;DHT22;3600;48.568;7.870;2022-07-23T01:02:10;22.50;99.90
7117;DHT22;3600;48.568;7.870;2022-07-23T01:04:37;22.40;99.90
7117;DHT22;3600;48.568;7.870;2022-07-23T01:07:03;22.60;99.90
7117;DHT22;3600;48.568;7.870;2022-07-23T01:09:31;22.70;99.90
7117;DHT22;3600;48.568;7.870;2022-07-23T01:11:58;22.80;99.90
7117;DHT22;3600;48.568;7.870;2022-07-23T01:14:25;22.80;99.90
7117;DHT22;3600;48.568;7.870;2022-07-23T01:16:53;22.70;99.90
7117;DHT22;3600;48.568;7.870;2022-07-23T01:19:20;22.50;99.90
7117;DHT22;3600;48.568;7.870;2022-07-23T01:21:49;22.50;99.90
7117;DHT22;3600;48.568;7.870;2022-07-23T01:24:17;22.50;99.90
7117;DHT22;3600;48.568;7.870;2022-07-23T01:26:48;22.50;99.90
7117;DHT22;3600;48.568;7.870;2022-07-23T01:29:15;22.90;99.90
7117;DHT22;3600;48.568;7.870;2022-07-23T01:31:43;22.90;99.90
7117;DHT22;3600;48.568;7.870;2022-07-23T01:34:11;23.00;99.90
7117;DHT22;3600;48.568;7.870;2022-07-23T01:36:38;22.90;99.90
7117;DHT22;3600;48.568;7.870;2022-07-23T01:39:06;22.70;99.90
7117;DHT22;3600;48.568;7.870;2022-07-23T01:41:34;22.40;99.90
7117;DHT22;3600;48.568;7.870;2022-07-23T01:44:01;22.40;99.90
7117;DHT22;3600;48.568;7.870;2022-07-23T01:46:27;22.50;99.90
7117;DHT22;3600;48.568;7.870;2022-07-23T01:48:54;22.60;99.90
7117;DHT22;3600;48.568;7.870;2022-07-23T01:51:21;22.90;99.90
7117;DHT22;3600;48.568;7.870;2022-07-23T01:53:48;23.10;99.90
7117;DHT22;3600;48.568;7.870;2022-07-23T01:56:14;23.20;99.90
7117;DHT22;3600;48.568;7.870;2022-07-23T01:58:41;23.30;99.90
7117;DHT22;3600;48.568;7.870;2022-07-23T02:01:08;23.00;99.90
7117;DHT22;3600;48.568;7.870;2022-07-23T02:03:36;22.90;99.90
7117;DHT22;3600;48.568;7.870;2022-07-23T02:06:03;22.80;99.90
7117;DHT22;3600;48.568;7.870;2022-07-23T02:08:29;22.60;99.90
7117;DHT22;3600;48.568;7.870;2022-07-23T02:10:56;22.80;99.90
7117;DHT22;3600;48.568;7.870;2022-07-23T02:13:23;22.90;99.90
7117;DHT22;3600;48.568;7.870;2022-07-23T02:15:50;23.00;99.90
7117;DHT22;3600;48.568;7.870;2022-07-23T02:18:17;23.10;99.90
7117;DHT22;3600;48.568;7.870;2022-07-23T02:20:43;22.60;99.90
7117;DHT22;3600;48.568;7.870;2022-07-23T02:23:11;22.40;99.90
7117;DHT22;3600;48.568;7.870;2022-07-23T02:25:38;22.60;99.90
7117;DHT22;3600;48.568;7.870;2022-07-23T02:28:05;22.40;99.90
7117;DHT22;3600;48.568;7.870;2022-07-23T02:30:31;22.30;99.90
7117;DHT22;3600;48.568;7.870;2022-07-23T02:32:58;22.60;99.90
7117;DHT22;3600;48.568;7.870;2022-07-23T02:35:25;22.90;99.90
7117;DHT22;3600;48.568;7.870;2022-07-23T02:37:52;22.80;99.90
7117;DHT22;3600;48.568;7.870;2022-07-23T02:40:19;22.60;99.90
7117;DHT22;3600;48.568;7.870;2022-07-23T02:42:46;22.40;99.90
7117;DHT22;3600;48.568;7.870;2022-07-23T02:45:13;22.30;99.90
7117;DHT22;3600;48.568;7.870;2022-07-23T02:47:39;22.00;99.90
7117;DHT22;3600;48.568;7.870;2022-07-23T02:50:07;22.40;99.90
7117;DHT22;3600;48.568;7.870;2022-07-23T02:52:34;22.50;99.90
7117;DHT22;3600;48.568;7.870;2022-07-23T02:55:01;22.30;99.90
7117;DHT22;3600;48.568;7.870;2022-07-23T02:57:27;22.30;99.90
7117;DHT22;3600;48.568;7.870;2022-07-23T02:59:54;21.90;99.90
7117;DHT22;3600;48.568;7.870;2022-07-23T03:02:21;22.10;99.90
7117;DHT22;3600;48.568;7.870;2022-07-23T03:04:48;22.20;99.90
7117;DHT22;3600;48.568;7.870;2022-07-23T03:07:16;22.10;99.90
7117;DHT22;3600;48.568;7.870;2022-07-23T03:09:43;22.00;99.90
7117;DHT22;3600;48.568;7.870;2022-07-23T03:12:10;21.70;99.90
7117;DHT22;3600;48.568;7.870;2022-07-23T03:14:40;21.70;99.90
7117;DHT22;3600;48.568;7.870;2022-07-23T03:17:08;21.60;99.90
7117;DHT22;3600;48.568;7.870;2022-07-23T03:19:35;21.60;99.90
7117;DHT22;3600;48.568;7.870;2022-07-23T03:22:01;21.90;99.90
7117;DHT22;3600;48.568;7.870;2022-07-23T03:24:28;22.10;99.90
7117;DHT22;3600;48.568;7.870;2022-07-23T03:27:14;22.00;99.90
7117;DHT22;3600;48.568;7.870;2022-07-23T03:29:41;22.00;99.90
7117;DHT22;3600;48.568;7.870;2022-07-23T03:32:07;22.00;99.90
7117;DHT22;3600;48.568;7.870;2022-07-23T03:34:34;22.20;99.90
7117;DHT22;3600;48.568;7.870;2022-07-23T03:37:01;22.00;99.90
7117;DHT22;3600;48.568;7.870;2022-07-23T03:39:28;22.10;99.90
7117;DHT22;3600;48.568;7.870;2022-07-23T03:41:55;22.10;99.90
7117;DHT22;3600;48.568;7.870;2022-07-23T03:44:22;22.10;99.90
7117;DHT22;3600;48.568;7.870;2022-07-23T03:46:49;22.10;99.90
7117;DHT22;3600;48.568;7.870;2022-07-23T03:49:16;21.80;99.90
7117;DHT22;3600;48.568;7.870;2022-07-23T03:51:44;21.80;99.90
7117;DHT22;3600;48.568;7.870;2022-07-23T03:54:11;21.80;99.90
7117;DHT22;3600;48.568;7.870;2022-07-23T03:56:38;21.80;99.90
7117;DHT22;3600;48.568;7.870;2022-07-23T03:59:04;21.90;99.90
7117;DHT22;3600;48.568;7.870;2022-07-23T04:01:31;22.10;99.90
7117;DHT22;3600;48.568;7.870;2022-07-23T04:03:59;22.20;99.90
7117;DHT22;3600;48.568;7.870;2022-07-23T04:06:26;22.40;99.90
7117;DHT22;3600;48.568;7.870;2022-07-23T04:08:53;22.30;99.90
7117;DHT22;3600;48.568;7.870;2022-07-23T04:11:20;22.40;99.90
7117;DHT22;3600;48.568;7.870;2022-07-23T04:13:46;22.60;99.90
7117;DHT22;3600;48.568;7.870;2022-07-23T04:16:13;22.60;99.90
7117;DHT22;3600;48.568;7.870;2022-07-23T04:18:40;22.60;99.90
7117;DHT22;3600;48.568;7.870;2022-07-23T04:21:07;22.60;99.90
7117;DHT22;3600;48.568;7.870;2022-07-23T04:23:33;22.60;99.90
7117;DHT22;3600;48.568;7.870;2022-07-23T04:26:00;22.60;99.90
7117;DHT22;3600;48.568;7.870;2022-07-23T04:28:27;22.30;99.90
7117;DHT22;3600;48.568;7.870;2022-07-23T04:30:58;22.20;99.90
7117;DHT22;3600;48.568;7.870;2022-07-23T04:33:26;22.20;99.90
7117;DHT22;3600;48.568;7.870;2022-07-23T04:35:52;22.30;99.90
7117;DHT22;3600;48.568;7.870;2022-07-23T04:38:19;22.10;99.90
7117;DHT22;3600;48.568;7.870;2022-07-23T04:40:46;21.90;99.90
7117;DHT22;3600;48.568;7.870;2022-07-23T04:43:13;22.20;99.90
7117;DHT22;3600;48.568;7.870;2022-07-23T04:45:40;22.10;99.90
7117;DHT22;3600;48.568;7.870;2022-07-23T04:48:09;22.20;99.90
7117;DHT22;3600;48.568;7.870;2022-07-23T04:50:36;22.20;99.90
7117;DHT22;3600;48.568;7.870;2022-07-23T04:53:02;22.30;99.90
7117;DHT22;3600;48.568;7.870;2022-07-23T04:55:29;22.40;99.90
7117;DHT22;3600;48.568;7.870;2022-07-23T04:57:56;22.20;99.90
7117;DHT22;3600;48.568;7.870;2022-07-23T05:00:23;22.30;99.90
7117;DHT22;3600;48.568;7.870;2022-07-23T05:02:50;22.50;99.90
7117;DHT22;3600;48.568;7.870;2022-07-23T05:05:16;22.60;99.90
7117;DHT22;3600;48.568;7.870;2022-07-23T05:07:43;22.70;99.90
7117;DHT22;3600;48.568;7.870;2022-07-23T05:10:10;22.70;99.90
7117;DHT22;3600;48.568;7.870;2022-07-23T05:12:37;22.60;99.90
7117;DHT22;3600;48.568;7.870;2022-07-23T05:15:04;22.40;99.90
7117;DHT22;3600;48.568;7.870;2022-07-23T05:17:31;22.50;99.90
7117;DHT22;3600;48.568;7.870;2022-07-23T05:19:57;22.60;99.90
7117;DHT22;3600;48.568;7.870;2022-07-23T05:22:26;22.60;99.90
7117;DHT22;3600;48.568;7.870;2022-07-23T05:24:54;22.60;99.90
7117;DHT22;3600;48.568;7.870;2022-07-23T05:27:20;22.50;99.90
7117;DHT22;3600;48.568;7.870;2022-07-23T05:29:47;22.40;99.90
7117;DHT22;3600;48.568;7.870;2022-07-23T05:32:14;22.30;99.90
7117;DHT22;3600;48.568;7.870;2022-07-23T05:34:41;22.20;99.90
7117;DHT22;3600;48.568;7.870;2022-07-23T05:37:07;22.20;99.90
7117;DHT22;3600;48.568;7.870;2022-07-23T05:39:34;22.50;99.90
7117;DHT22;3600;48.568;7.870;2022-07-23T05:42:01;22.50;99.90
7117;DHT22;3600;48.568;7.870;2022-07-23T05:44:28;22.50;99.90
7117;DHT22;3600;48.568;7.870;2022-07-23T05:47:00;22.40;99.90
7117;DHT22;3600;48.568;7.870;2022-07-23T05:49:27;22.30;99.90
7117;DHT22;3600;48.568;7.870;2022-07-23T05:51:53;21.80;99.90
7117;DHT22;3600;48.568;7.870;2022-07-23T05:54:20;21.90;99.90
7117;DHT22;3600;48.568;7.870;2022-07-23T05:56:47;21.80;99.90
7117;DHT22;3600;48.568;7.870;2022-07-23T05:59:14;21.90;99.90
7117;DHT22;3600;48.568;7.870;2022-07-23T06:01:42;22.20;99.90
7117;DHT22;3600;48.568;7.870;2022-07-23T06:04:09;22.30;99.90
7117;DHT22;3600;48.568;7.870;2022-07-23T06:06:35;22.50;99.90
7117;DHT22;3600;48.568;7.870;2022-07-23T06:09:03;21.90;99.90
7117;DHT22;3600;48.568;7.870;2022-07-23T06:11:30;21.60;99.90
7117;DHT22;3600;48.568;7.870;2022-07-23T06:13:57;21.90;99.90
7117;DHT22;3600;48.568;7.870;2022-07-23T06:16:24;22.10;99.90
7117;DHT22;3600;48.568;7.870;2022-07-23T06:18:51;21.80;99.90
7117;DHT22;3600;48.568;7.870;2022-07-23T06:21:18;21.70;99.90
7117;DHT22;3600;48.568;7.870;2022-07-23T06:24:05;21.40;99.90
7117;DHT22;3600;48.568;7.870;2022-07-23T06:26:31;21.40;99.90
7117;DHT22;3600;48.568;7.870;2022-07-23T06:28:58;21.50;99.90
7117;DHT22;3600;48.568;7.870;2022-07-23T06:31:25;21.70;99.90
7117;DHT22;3600;48.568;7.870;2022-07-23T06:33:52;22.00;99.90
7117;DHT22;3600;48.568;7.870;2022-07-23T06:36:19;21.90;99.90
7117;DHT22;3600;48.568;7.870;2022-07-23T06:38:46;21.90;99.90
7117;DHT22;3600;48.568;7.870;2022-07-23T06:41:14;21.70;99.90
7117;DHT22;3600;48.568;7.870;2022-07-23T06:43:41;21.70;99.90
7117;DHT22;3600;48.568;7.870;2022-07-23T06:46:07;22.00;99.90
7117;DHT22;3600;48.568;7.870;2022-07-23T06:48:35;22.10;99.90
7117;DHT22;3600;48.568;7.870;2022-07-23T06:51:03;22.30;99.90
7117;DHT22;3600;48.568;7.870;2022-07-23T06:53:30;22.20;99.90
7117;DHT22;3600;48.568;7.870;2022-07-23T06:55:56;22.00;99.90
7117;DHT22;3600;48.568;7.870;2022-07-23T06:58:23;22.40;99.90
7117;DHT22;3600;48.568;7.870;2022-07-23T07:00:50;22.60;99.90
7117;DHT22;3600;48.568;7.870;2022-07-23T07:03:17;22.70;99.90
7117;DHT22;3600;48.568;7.870;2022-07-23T07:05:45;22.70;99.90
7117;DHT22;3600;48.568;7.870;2022-07-23T07:08:12;22.70;99.90
7117;DHT22;3600;48.568;7.870;2022-07-23T07:10:38;22.60;99.90
7117;DHT22;3600;48.568;7.870;2022-07-23T07:13:05;22.70;99.90
7117;DHT22;3600;48.568;7.870;2022-07-23T07:15:32;22.90;99.90
7117;DHT22;3600;48.568;7.870;2022-07-23T07:17:59;22.80;99.90
7117;DHT22;3600;48.568;7.870;2022-07-23T07:20:26;22.60;99.90
7117;DHT22;3600;48.568;7.870;2022-07-23T07:22:52;22.40;99.90
7117;DHT22;3600;48.568;7.870;2022-07-23T07:25:19;22.40;99.90
7117;DHT22;3600;48.568;7.870;2022-07-23T07:27:46;22.60;99.90
7117;DHT22;3600;48.568;7.870;2022-07-23T07:30:13;22.50;99.90
7117;DHT22;3600;48.568;7.870;2022-07-23T07:32:40;22.50;99.90
7117;DHT22;3600;48.568;7.870;2022-07-23T07:35:24;22.30;99.90
7117;DHT22;3600;48.568;7.870;2022-07-23T07:37:51;22.50;99.90
7117;DHT22;3600;48.568;7.870;2022-07-23T07:40:18;22.40;99.90
7117;DHT22;3600;48.568;7.870;2022-07-23T07:42:50;22.50;99.90
7117;DHT22;3600;48.568;7.870;2022-07-23T07:45:19;22.40;99.90
7117;DHT22;3600;48.568;7.870;2022-07-23T07:47:47;22.30;99.90
7117;DHT22;3600;48.568;7.870;2022-07-23T07:50:14;22.50;99.90
7117;DHT22;3600;48.568;7.870;2022-07-23T07:52:41;22.70;99.90
7117;DHT22;3600;48.568;7.870;2022-07-23T07:55:08;22.50;99.90
7117;DHT22;3600;48.568;7.870;2022-07-23T07:57:36;22.60;99.90
7117;DHT22;3600;48.568;7.870;2022-07-23T08:00:05;22.80;99.90
7117;DHT22;3600;48.568;7.870;2022-07-23T08:02:53;22.50;99.90
7117;DHT22;3600;48.568;7.870;2022-07-23T08:05:26;22.70;99.90
7117;DHT22;3600;48.568;7.870;2022-07-23T08:07:58;23.20;99.90
7117;DHT22;3600;48.568;7.870;2022-07-23T08:10:26;23.30;99.90
7117;DHT22;3600;48.568;7.870;2022-07-23T08:12:55;23.40;99.90
7117;DHT22;3600;48.568;7.870;2022-07-23T08:15:24;23.40;99.90
7117;DHT22;3600;48.568;7.870;2022-07-23T08:17:52;23.40;99.90
7117;DHT22;3600;48.568;7.870;2022-07-23T08:20:21;23.20;99.90
7117;DHT22;3600;48.568;7.870;2022-07-23T08:22:58;23.50;99.90
7117;DHT22;3600;48.568;7.870;2022-07-23T08:25:28;23.70;99.90
7117;DHT22;3600;48.568;7.870;2022-07-23T08:27:57;23.70;99.90
7117;DHT22;3600;48.568;7.870;2022-07-23T08:30:24;23.80;99.90
7117;DHT22;3600;48.568;7.870;2022-07-23T08:33:00;23.80;99.90
7117;DHT22;3600;48.568;7.870;2022-07-23T08:37:56;23.90;99.90
7117;DHT22;3600;48.568;7.870;2022-07-23T08:40:29;24.00;99.90
7117;DHT22;3600;48.568;7.870;2022-07-23T08:42:56;24.20;99.90
7117;DHT22;3600;48.568;7.870;2022-07-23T08:45:24;23.80;99.90
7117;DHT22;3600;48.568;7.870;2022-07-23T08:47:55;24.00;99.90
7117;DHT22;3600;48.568;7.870;2022-07-23T08:50:23;24.10;99.90
7117;DHT22;3600;48.568;7.870;2022-07-23T08:52:51;24.00;99.90
7117;DHT22;3600;48.568;7.870;2022-07-23T08:55:21;24.40;99.90
7117;DHT22;3600;48.568;7.870;2022-07-23T08:57:51;24.40;99.90
7117;DHT22;3600;48.568;7.870;2022-07-23T09:00:19;24.40;99.90
7117;DHT22;3600;48.568;7.870;2022-07-23T09:02:47;24.30;99.90
7117;DHT22;3600;48.568;7.870;2022-07-23T09:05:15;24.20;99.90
7117;DHT22;3600;48.568;7.870;2022-07-23T09:08:13;24.30;99.90
7117;DHT22;3600;48.568;7.870;2022-07-23T09:10:45;24.40;99.90
7117;DHT22;3600;48.568;7.870;2022-07-23T09:13:36;24.70;99.90
7117;DHT22;3600;48.568;7.870;2022-07-23T09:21:07;24.70;99.90
7117;DHT22;3600;48.568;7.870;2022-07-23T09:23:39;24.80;99.90
7117;DHT22;3600;48.568;7.870;2022-07-23T09:26:28;24.90;99.90
7117;DHT22;3600;48.568;7.870;2022-07-23T09:36:45;24.80;99.90
7117;DHT22;3600;48.568;7.870;2022-07-23T09:39:14;24.80;99.90
7117;DHT22;3600;48.568;7.870;2022-07-23T09:41:46;25.20;99.90
7117;DHT22;3600;48.568;7.870;2022-07-23T09:44:16;25.50;99.90
7117;DHT22;3600;48.568;7.870;2022-07-23T09:46:45;25.40;99.90
7117;DHT22;3600;48.568;7.870;2022-07-23T09:54:38;25.20;99.90
7117;DHT22;3600;48.568;7.870;2022-07-23T09:57:11;25.60;99.90
7117;DHT22;3600;48.568;7.870;2022-07-23T09:59:44;25.80;99.90
7117;DHT22;3600;48.568;7.870;2022-07-23T10:02:13;25.50;99.90
7117;DHT22;3600;48.568;7.870;2022-07-23T10:04:41;25.30;99.90
7117;DHT22;3600;48.568;7.870;2022-07-23T10:07:09;25.70;99.90
7117;DHT22;3600;48.568;7.870;2022-07-23T10:09:38;26.30;99.90
7117;DHT22;3600;48.568;7.870;2022-07-23T10:12:11;26.10;99.90
7117;DHT22;3600;48.568;7.870;2022-07-23T10:14:57;25.70;99.90
7117;DHT22;3600;48.568;7.870;2022-07-23T10:17:24;25.70;99.90
7117;DHT22;3600;48.568;7.870;2022-07-23T10:19:51;26.10;99.90
7117;DHT22;3600;48.568;7.870;2022-07-23T10:22:27;26.10;99.90
7117;DHT22;3600;48.568;7.870;2022-07-23T10:25:18;26.60;99.90
7117;DHT22;3600;48.568;7.870;2022-07-23T10:28:29;26.80;99.90
7117;DHT22;3600;48.568;7.870;2022-07-23T10:31:08;26.80;99.90
7117;DHT22;3600;48.568;7.870;2022-07-23T10:34:29;27.30;99.90
7117;DHT22;3600;48.568;7.870;2022-07-23T10:40:14;27.30;99.90
7117;DHT22;3600;48.568;7.870;2022-07-23T10:42:45;27.20;99.90
7117;DHT22;3600;48.568;7.870;2022-07-23T10:47:49;26.40;99.90
7117;DHT22;3600;48.568;7.870;2022-07-23T10:50:18;26.50;99.90
7117;DHT22;3600;48.568;7.870;2022-07-23T10:58:03;27.00;99.90
7117;DHT22;3600;48.568;7.870;2022-07-23T11:00:32;26.80;99.90
7117;DHT22;3600;48.568;7.870;2022-07-23T11:03:01;26.70;99.90
7117;DHT22;3600;48.568;7.870;2022-07-23T11:05:41;26.80;99.90
7117;DHT22;3600;48.568;7.870;2022-07-23T11:08:10;26.90;99.90
7117;DHT22;3600;48.568;7.870;2022-07-23T11:10:41;27.00;99.90
7117;DHT22;3600;48.568;7.870;2022-07-23T11:13:27;27.30;99.90
7117;DHT22;3600;48.568;7.870;2022-07-23T11:16:17;27.40;99.90
7117;DHT22;3600;48.568;7.870;2022-07-23T11:24:17;27.80;99.90
7117;DHT22;3600;48.568;7.870;2022-07-23T11:26:53;28.20;99.90
7117;DHT22;3600;48.568;7.870;2022-07-23T11:37:00;28.10;99.90
7117;DHT22;3600;48.568;7.870;2022-07-23T11:39:29;28.40;99.90
7117;DHT22;3600;48.568;7.870;2022-07-23T11:41:57;28.40;99.90
7117;DHT22;3600;48.568;7.870;2022-07-23T11:44:46;28.40;99.90
7117;DHT22;3600;48.568;7.870;2022-07-23T11:47:15;28.70;99.90
7117;DHT22;3600;48.568;7.870;2022-07-23T11:49:56;28.70;99.90
7117;DHT22;3600;48.568;7.870;2022-07-23T11:52:24;28.00;99.90
7117;DHT22;3600;48.568;7.870;2022-07-23T11:54:59;27.50;99.90
7117;DHT22;3600;48.568;7.870;2022-07-23T11:57:31;28.10;99.90
7117;DHT22;3600;48.568;7.870;2022-07-23T12:00:26;28.70;99.90
7117;DHT22;3600;48.568;7.870;2022-07-23T12:03:00;29.10;99.90
7117;DHT22;3600;48.568;7.870;2022-07-23T12:05:33;28.80;99.90
7117;DHT22;3600;48.568;7.870;2022-07-23T12:08:01;28.70;99.90
7117;DHT22;3600;48.568;7.870;2022-07-23T12:10:33;29.00;99.90
7117;DHT22;3600;48.568;7.870;2022-07-23T12:13:12;28.60;99.90
7117;DHT22;3600;48.568;7.870;2022-07-23T12:15:41;27.50;99.90
7117;DHT22;3600;48.568;7.870;2022-07-23T12:18:14;27.40;99.90
7117;DHT22;3600;48.568;7.870;2022-07-23T12:20:43;27.40;99.90
7117;DHT22;3600;48.568;7.870;2022-07-23T12:23:13;27.50;99.90
7117;DHT22;3600;48.568;7.870;2022-07-23T12:25:47;27.40;99.90
7117;DHT22;3600;48.568;7.870;2022-07-23T12:28:19;27.90;99.90
7117;DHT22;3600;48.568;7.870;2022-07-23T12:30:52;28.50;99.90
7117;DHT22;3600;48.568;7.870;2022-07-23T12:33:37;27.80;99.90
7117;DHT22;3600;48.568;7.870;2022-07-23T12:36:07;28.20;99.90
7117;DHT22;3600;48.568;7.870;2022-07-23T12:38:47;27.70;99.90
7117;DHT22;3600;48.568;7.870;2022-07-23T12:41:15;28.10;99.90
7117;DHT22;3600;48.568;7.870;2022-07-23T12:43:44;28.40;99.90
7117;DHT22;3600;48.568;7.870;2022-07-23T12:46:16;28.30;99.90
7117;DHT22;3600;48.568;7.870;2022-07-23T12:53:54;28.30;99.90
7117;DHT22;3600;48.568;7.870;2022-07-23T12:56:30;28.90;99.90
7117;DHT22;3600;48.568;7.870;2022-07-23T13:01:35;28.00;99.90
7117;DHT22;3600;48.568;7.870;2022-07-23T13:04:13;28.10;99.90
7117;DHT22;3600;48.568;7.870;2022-07-23T13:09:17;28.20;99.90
7117;DHT22;3600;48.568;7.870;2022-07-23T13:11:46;28.30;99.90
7117;DHT22;3600;48.568;7.870;2022-07-23T13:14:14;29.00;99.90
7117;DHT22;3600;48.568;7.870;2022-07-23T13:16:42;29.50;99.90
7117;DHT22;3600;48.568;7.870;2022-07-23T13:19:09;29.40;99.90
7117;DHT22;3600;48.568;7.870;2022-07-23T13:21:39;28.90;99.90
7117;DHT22;3600;48.568;7.870;2022-07-23T13:24:07;28.90;99.90
7117;DHT22;3600;48.568;7.870;2022-07-23T13:26:36;29.20;99.90
7117;DHT22;3600;48.568;7.870;2022-07-23T13:29:05;29.40;99.90
7117;DHT22;3600;48.568;7.870;2022-07-23T13:31:36;29.00;99.90
7117;DHT22;3600;48.568;7.870;2022-07-23T13:34:05;29.20;99.90
7117;DHT22;3600;48.568;7.870;2022-07-23T13:36:52;29.80;99.90
7117;DHT22;3600;48.568;7.870;2022-07-23T13:39:19;30.30;99.90
7117;DHT22;3600;48.568;7.870;2022-07-23T13:41:46;30.40;99.90
7117;DHT22;3600;48.568;7.870;2022-07-23T13:44:16;30.50;99.90
7117;DHT22;3600;48.568;7.870;2022-07-23T13:46:44;30.80;99.90
7117;DHT22;3600;48.568;7.870;2022-07-23T13:49:13;30.40;99.90
7117;DHT22;3600;48.568;7.870;2022-07-23T13:51:41;29.60;99.90
7117;DHT22;3600;48.568;7.870;2022-07-23T13:54:08;30.70;99.20
7117;DHT22;3600;48.568;7.870;2022-07-23T13:56:35;31.00;99.20
7117;DHT22;3600;48.568;7.870;2022-07-23T13:59:03;31.20;99.60
7117;DHT22;3600;48.568;7.870;2022-07-23T14:01:33;31.40;98.80
7117;DHT22;3600;48.568;7.870;2022-07-23T14:04:16;31.20;98.70
7117;DHT22;3600;48.568;7.870;2022-07-23T14:06:44;31.60;97.80
7117;DHT22;3600;48.568;7.870;2022-07-23T14:09:18;31.70;97.70
7117;DHT22;3600;48.568;7.870;2022-07-23T14:11:44;31.80;97.80
7117;DHT22;3600;48.568;7.870;2022-07-23T14:14:11;32.20;96.80
7117;DHT22;3600;48.568;7.870;2022-07-23T14:16:39;32.10;96.60
7117;DHT22;3600;48.568;7.870;2022-07-23T14:19:06;32.00;96.00
7117;DHT22;3600;48.568;7.870;2022-07-23T14:21:33;31.40;96.40
7117;DHT22;3600;48.568;7.870;2022-07-23T14:24:00;30.50;97.40
7117;DHT22;3600;48.568;7.870;2022-07-23T14:26:27;30.10;98.00
7117;DHT22;3600;48.568;7.870;2022-07-23T14:28:53;30.40;98.00
7117;DHT22;3600;48.568;7.870;2022-07-23T14:31:20;30.60;98.10
7117;DHT22;3600;48.568;7.870;2022-07-23T14:33:48;31.00;97.30
7117;DHT22;3600;48.568;7.870;2022-07-23T14:36:15;31.00;97.00
7117;DHT22;3600;48.568;7.870;2022-07-23T14:38:42;30.60;97.40
7117;DHT22;3600;48.568;7.870;2022-07-23T14:41:09;29.90;97.40
7117;DHT22;3600;48.568;7.870;2022-07-23T14:43:37;30.00;98.30
7117;DHT22;3600;48.568;7.870;2022-07-23T14:46:05;30.70;97.20
7117;DHT22;3600;48.568;7.870;2022-07-23T14:48:32;31.20;96.80
7117;DHT22;3600;48.568;7.870;2022-07-23T14:50:59;30.10;97.20
7117;DHT22;3600;48.568;7.870;2022-07-23T14:53:25;30.20;97.30
7117;DHT22;3600;48.568;7.870;2022-07-23T14:55:52;29.90;97.40
7117;DHT22;3600;48.568;7.870;2022-07-23T14:58:21;29.40;98.40
7117;DHT22;3600;48.568;7.870;2022-07-23T15:00:48;30.00;98.40
7117;DHT22;3600;48.568;7.870;2022-07-23T15:03:15;30.30;98.10
7117;DHT22;3600;48.568;7.870;2022-07-23T15:05:42;29.80;98.10
7117;DHT22;3600;48.568;7.870;2022-07-23T15:08:09;29.60;98.80
7117;DHT22;3600;48.568;7.870;2022-07-23T15:10:35;29.80;98.60
7117;DHT22;3600;48.568;7.870;2022-07-23T15:13:04;29.60;98.80
7117;DHT22;3600;48.568;7.870;2022-07-23T15:15:34;29.90;98.00
7117;DHT22;3600;48.568;7.870;2022-07-23T15:18:01;29.80;98.50
7117;DHT22;3600;48.568;7.870;2022-07-23T15:20:27;29.50;98.90
7117;DHT22;3600;48.568;7.870;2022-07-23T15:23:04;29.40;98.80
7117;DHT22;3600;48.568;7.870;2022-07-23T15:25:34;29.30;98.70
7117;DHT22;3600;48.568;7.870;2022-07-23T15:28:01;29.20;98.90
7117;DHT22;3600;48.568;7.870;2022-07-23T15:30:29;29.20;99.30
7117;DHT22;3600;48.568;7.870;2022-07-23T15:32:56;29.70;98.50
7117;DHT22;3600;48.568;7.870;2022-07-23T15:35:24;29.20;98.80
7117;DHT22;3600;48.568;7.870;2022-07-23T15:37:51;28.90;99.00
7117;DHT22;3600;48.568;7.870;2022-07-23T15:40:17;28.70;99.10
7117;DHT22;3600;48.568;7.870;2022-07-23T15:42:44;28.60;99.60
7117;DHT22;3600;48.568;7.870;2022-07-23T15:45:11;29.00;99.10
7117;DHT22;3600;48.568;7.870;2022-07-23T15:47:41;29.10;98.90
7117;DHT22;3600;48.568;7.870;2022-07-23T15:50:09;29.10;99.00
7117;DHT22;3600;48.568;7.870;2022-07-23T15:52:36;29.00;99.50
7117;DHT22;3600;48.568;7.870;2022-07-23T15:55:05;29.90;99.00
7117;DHT22;3600;48.568;7.870;2022-07-23T15:57:42;30.30;98.40
7117;DHT22;3600;48.568;7.870;2022-07-23T16:00:11;29.90;97.90
7117;DHT22;3600;48.568;7.870;2022-07-23T16:02:38;29.40;98.60
7117;DHT22;3600;48.568;7.870;2022-07-23T16:05:05;29.40;98.50
7117;DHT22;3600;48.568;7.870;2022-07-23T16:07:32;29.70;97.10
7117;DHT22;3600;48.568;7.870;2022-07-23T16:10:05;29.80;96.90
7117;DHT22;3600;48.568;7.870;2022-07-23T16:12:32;29.00;98.60
7117;DHT22;3600;48.568;7.870;2022-07-23T16:14:58;28.70;99.90
7117;DHT22;3600;48.568;7.870;2022-07-23T16:17:32;28.30;99.90
7117;DHT22;3600;48.568;7.870;2022-07-23T16:19:59;28.40;99.90
7117;DHT22;3600;48.568;7.870;2022-07-23T16:22:26;28.50;99.90
7117;DHT22;3600;48.568;7.870;2022-07-23T16:24:52;28.50;99.90
7117;DHT22;3600;48.568;7.870;2022-07-23T16:27:19;28.30;99.90
7117;DHT22;3600;48.568;7.870;2022-07-23T16:29:46;28.20;99.90
7117;DHT22;3600;48.568;7.870;2022-07-23T16:32:13;28.30;99.90
7117;DHT22;3600;48.568;7.870;2022-07-23T16:34:40;28.20;99.90
7117;DHT22;3600;48.568;7.870;2022-07-23T16:37:09;28.20;99.90
7117;DHT22;3600;48.568;7.870;2022-07-23T16:39:36;28.20;99.90
7117;DHT22;3600;48.568;7.870;2022-07-23T16:42:03;28.30;99.90
7117;DHT22;3600;48.568;7.870;2022-07-23T16:44:31;28.30;99.90
7117;DHT22;3600;48.568;7.870;2022-07-23T16:46:58;28.10;99.90
7117;DHT22;3600;48.568;7.870;2022-07-23T16:49:24;28.30;99.90
7117;DHT22;3600;48.568;7.870;2022-07-23T16:51:51;28.10;99.90
7117;DHT22;3600;48.568;7.870;2022-07-23T16:54:19;28.10;99.90
7117;DHT22;3600;48.568;7.870;2022-07-23T16:56:47;28.10;99.90
7117;DHT22;3600;48.568;7.870;2022-07-23T16:59:15;28.10;99.90
7117;DHT22;3600;48.568;7.870;2022-07-23T17:01:41;28.00;99.90
7117;DHT22;3600;48.568;7.870;2022-07-23T17:04:08;27.90;99.90
7117;DHT22;3600;48.568;7.870;2022-07-23T17:06:35;27.90;99.90
7117;DHT22;3600;48.568;7.870;2022-07-23T17:09:03;28.10;99.90